createdAt,value
2023-04-27T00:00:37.504Z,3.55
2023-04-27T00:03:06.544Z,4.82
2023-04-27T00:05:36.937Z,4.43
2023-04-27T00:08:03.261Z,3.43
2023-04-27T00:10:29.566Z,3.17
2023-04-27T00:12:55.852Z,2.60
2023-04-27T00:15:22.157Z,2.35
2023-04-27T00:17:48.555Z,2.75
2023-04-27T00:20:14.839Z,2.35
2023-04-27T00:22:41.435Z,3.13
2023-04-27T00:25:07.941Z,2.15
2023-04-27T00:27:34.164Z,2.90
2023-04-27T00:30:00.587Z,2.03
2023-04-27T00:32:27.051Z,2.58
2023-04-27T00:34:53.355Z,2.88
2023-04-27T00:37:19.671Z,2.42
2023-04-27T00:39:45.958Z,2.05
2023-04-27T00:42:15.233Z,2.08
2023-04-27T00:44:41.653Z,2.10
2023-04-27T00:47:07.986Z,1.83
2023-04-27T00:49:34.295Z,1.45
2023-04-27T00:52:00.642Z,1.30
2023-04-27T00:54:26.891Z,1.58
2023-04-27T00:56:53.483Z,1.38
2023-04-27T00:59:19.950Z,1.90
2023-04-27T01:01:46.800Z,1.38
2023-04-27T01:04:13.298Z,2.35
2023-04-27T01:06:39.763Z,2.33
2023-04-27T01:09:06.223Z,1.90
2023-04-27T01:11:32.998Z,2.25
2023-04-27T01:14:03.093Z,2.20
2023-04-27T01:16:29.417Z,2.30
2023-04-27T01:18:55.957Z,1.92
2023-04-27T01:21:22.320Z,2.00
2023-04-27T01:23:48.536Z,1.80
2023-04-27T01:26:16.411Z,3.08
2023-04-27T01:28:43.100Z,2.17
2023-04-27T01:31:12.537Z,1.80
2023-04-27T01:33:39.424Z,2.22
2023-04-27T01:36:06.324Z,1.15
2023-04-27T01:38:33.268Z,2.90
2023-04-27T01:41:01.943Z,2.10
2023-04-27T01:43:28.676Z,1.92
2023-04-27T01:45:55.291Z,2.85
2023-04-27T01:48:21.771Z,2.10
2023-04-27T01:50:48.112Z,3.58
2023-04-27T01:53:14.364Z,2.65
2023-04-27T01:55:41.061Z,2.35
2023-04-27T01:58:07.366Z,2.35
2023-04-27T02:00:33.614Z,2.33
2023-04-27T02:03:01.114Z,1.92
2023-04-27T02:05:27.590Z,2.00
2023-04-27T02:07:54.043Z,1.88
2023-04-27T02:10:22.192Z,1.55
2023-04-27T02:12:48.612Z,1.60
2023-04-27T02:15:15.089Z,3.95
2023-04-27T02:17:41.455Z,3.60
2023-04-27T02:20:08.948Z,2.85
2023-04-27T02:22:35.512Z,3.58
2023-04-27T02:25:01.942Z,1.38
2023-04-27T02:27:28.241Z,1.73
2023-04-27T02:29:55.042Z,2.28
2023-04-27T02:32:22.344Z,1.73
2023-04-27T02:34:48.575Z,2.15
2023-04-27T02:37:14.814Z,1.30
2023-04-27T02:39:41.164Z,1.20
2023-04-27T02:42:07.414Z,1.45
2023-04-27T02:44:33.681Z,1.48
2023-04-27T02:47:00.074Z,0.73
2023-04-27T02:49:26.523Z,1.33
2023-04-27T02:51:52.794Z,1.45
2023-04-27T02:54:19.027Z,1.48
2023-04-27T02:56:45.401Z,2.50
2023-04-27T02:59:11.976Z,1.30
2023-04-27T03:01:38.633Z,1.65
2023-04-27T03:04:05.219Z,1.95
2023-04-27T03:06:31.691Z,2.03
2023-04-27T03:08:57.995Z,3.30
2023-04-27T03:11:24.224Z,2.10
2023-04-27T03:13:50.556Z,2.40
2023-04-27T03:16:16.899Z,2.75
2023-04-27T03:18:43.316Z,2.15
2023-04-27T03:21:10.674Z,1.63
2023-04-27T03:23:37.073Z,1.42
2023-04-27T03:26:08.996Z,1.15
2023-04-27T03:28:35.816Z,1.77
2023-04-27T03:31:06.210Z,1.30
2023-04-27T03:33:32.879Z,1.17
2023-04-27T03:35:59.686Z,1.08
2023-04-27T03:38:26.433Z,1.45
2023-04-27T03:40:53.462Z,1.80
2023-04-27T03:43:20.261Z,2.35
2023-04-27T03:45:46.588Z,1.75
2023-04-27T03:48:13.775Z,2.13
2023-04-27T03:50:40.212Z,1.60
2023-04-27T03:53:06.721Z,1.80
2023-04-27T03:55:33.064Z,1.90
2023-04-27T03:57:59.360Z,1.40
2023-04-27T04:00:25.720Z,1.90
2023-04-27T04:02:52.376Z,1.65
2023-04-27T04:05:18.929Z,2.38
2023-04-27T04:07:45.468Z,2.05
2023-04-27T04:10:11.988Z,2.63
2023-04-27T04:12:38.289Z,2.35
2023-04-27T04:15:05.036Z,2.42
2023-04-27T04:17:31.439Z,2.25
2023-04-27T04:19:57.781Z,1.65
2023-04-27T04:22:24.086Z,1.75
2023-04-27T04:24:51.323Z,1.35
2023-04-27T04:27:17.734Z,1.58
2023-04-27T04:29:44.005Z,1.17
2023-04-27T04:32:12.278Z,1.20
2023-04-27T04:34:38.619Z,2.13
2023-04-27T04:37:05.428Z,2.20
2023-04-27T04:39:32.130Z,2.10
2023-04-27T04:41:58.449Z,2.75
2023-04-27T04:44:24.749Z,1.80
2023-04-27T04:46:51.243Z,2.30
2023-04-27T04:49:17.837Z,2.90
2023-04-27T04:51:45.393Z,2.75
2023-04-27T04:54:11.876Z,3.22
2023-04-27T04:56:38.182Z,2.40
2023-04-27T04:59:04.482Z,3.17
2023-04-27T05:01:31.145Z,2.22
2023-04-27T05:03:57.618Z,1.98
2023-04-27T05:06:24.046Z,2.50
2023-04-27T05:08:50.300Z,3.28
2023-04-27T05:11:16.596Z,2.22
2023-04-27T05:13:43.124Z,2.75
2023-04-27T05:16:09.470Z,1.92
2023-04-27T05:18:36.194Z,2.97
2023-04-27T05:21:02.521Z,9.10
2023-04-27T05:23:28.792Z,9.50
2023-04-27T05:25:55.139Z,5.97
2023-04-27T05:28:21.477Z,3.20
2023-04-27T05:30:47.763Z,4.07
2023-04-27T05:33:14.112Z,5.32
2023-04-27T05:35:40.541Z,5.75
2023-04-27T05:38:06.842Z,6.05
2023-04-27T05:40:33.136Z,4.20
2023-04-27T05:43:01.770Z,3.53
2023-04-27T05:45:28.049Z,2.40
2023-04-27T05:47:54.348Z,2.47
2023-04-27T05:50:20.657Z,2.03
2023-04-27T05:52:46.944Z,1.83
2023-04-27T05:55:13.187Z,2.13
2023-04-27T05:57:39.765Z,1.75
2023-04-27T06:00:10.410Z,2.17
2023-04-27T06:02:36.796Z,2.77
2023-04-27T06:05:03.795Z,2.42
2023-04-27T06:07:30.530Z,2.45
2023-04-27T06:09:56.805Z,1.58
2023-04-27T06:12:23.107Z,2.05
2023-04-27T06:14:49.400Z,2.10
2023-04-27T06:17:15.661Z,2.45
2023-04-27T06:19:41.933Z,1.80
2023-04-27T06:22:09.627Z,1.92
2023-04-27T06:24:36.532Z,1.60
2023-04-27T06:27:02.864Z,1.70
2023-04-27T06:29:29.163Z,2.33
2023-04-27T06:31:55.544Z,1.73
2023-04-27T06:34:21.794Z,2.75
2023-04-27T06:36:48.148Z,2.20
2023-04-27T06:39:14.570Z,2.97
2023-04-27T06:41:41.215Z,2.65
2023-04-27T06:44:07.524Z,2.38
2023-04-27T06:46:34.041Z,2.15
2023-04-27T06:49:01.597Z,3.22
2023-04-27T06:51:28.387Z,2.40
2023-04-27T06:53:57.101Z,1.58
2023-04-27T06:56:23.403Z,2.15
2023-04-27T06:58:49.713Z,2.10
2023-04-27T07:01:16.757Z,1.75
2023-04-27T07:03:43.217Z,2.13
2023-04-27T07:06:09.656Z,1.50
2023-04-27T07:08:36.889Z,1.30
2023-04-27T07:11:03.706Z,1.38
2023-04-27T07:13:30.191Z,1.60
2023-04-27T07:16:00.514Z,1.58
2023-04-27T07:18:28.235Z,2.53
2023-04-27T07:20:55.109Z,1.38
2023-04-27T07:23:21.398Z,1.63
2023-04-27T07:25:48.142Z,1.92
2023-04-27T07:28:15.072Z,1.73
2023-04-27T07:30:42.472Z,1.40
2023-04-27T07:33:10.017Z,1.48
2023-04-27T07:35:37.060Z,1.60
2023-04-27T07:38:03.562Z,2.28
2023-04-27T07:40:30.098Z,1.20
2023-04-27T07:42:56.609Z,1.52
2023-04-27T07:45:23.188Z,1.50
2023-04-27T07:47:49.498Z,1.48
2023-04-27T07:50:16.906Z,1.23
2023-04-27T07:52:43.304Z,1.92
2023-04-27T07:55:09.978Z,1.45
2023-04-27T07:57:36.363Z,1.20
2023-04-27T08:00:05.421Z,1.20
2023-04-27T08:02:32.294Z,1.20
2023-04-27T08:04:59.711Z,1.13
2023-04-27T08:07:26.269Z,2.33
2023-04-27T08:09:53.161Z,1.65
2023-04-27T08:12:19.611Z,1.25
2023-04-27T08:14:46.546Z,1.95
2023-04-27T08:17:12.879Z,1.40
2023-04-27T08:19:40.703Z,1.17
2023-04-27T08:22:07.195Z,1.15
2023-04-27T08:24:33.585Z,1.70
2023-04-27T08:27:00.006Z,1.38
2023-04-27T08:29:28.857Z,1.67
2023-04-27T08:31:58.615Z,1.08
2023-04-27T08:34:25.607Z,1.05
2023-04-27T08:36:52.275Z,1.50
2023-04-27T08:39:18.945Z,1.08
2023-04-27T08:41:45.414Z,1.95
2023-04-27T08:44:11.778Z,1.67
2023-04-27T08:46:38.781Z,1.67
2023-04-27T08:49:06.128Z,1.52
2023-04-27T08:51:33.053Z,1.30
2023-04-27T08:53:59.635Z,1.17
2023-04-27T08:56:27.993Z,1.25
2023-04-27T08:58:55.453Z,1.00
2023-04-27T09:01:22.478Z,1.20
2023-04-27T09:03:48.948Z,1.33
2023-04-27T09:06:16.566Z,1.10
2023-04-27T09:08:46.870Z,1.00
2023-04-27T09:11:27.639Z,1.38
2023-04-27T09:13:54.020Z,1.00
2023-04-27T09:16:23.978Z,1.30
2023-04-27T09:18:50.584Z,0.90
2023-04-27T09:21:27.413Z,1.13
2023-04-27T09:23:54.187Z,1.00
2023-04-27T09:26:24.435Z,1.20
2023-04-27T09:28:52.555Z,1.40
2023-04-27T09:31:19.255Z,1.02
2023-04-27T09:33:45.980Z,1.30
2023-04-27T09:36:12.398Z,1.55
2023-04-27T09:38:38.782Z,1.45
2023-04-27T09:41:05.557Z,2.10
2023-04-27T09:43:32.133Z,1.35
2023-04-27T09:45:59.122Z,1.60
2023-04-27T09:48:26.057Z,1.55
2023-04-27T09:50:52.636Z,1.40
2023-04-27T09:53:20.720Z,1.30
2023-04-27T09:55:59.229Z,1.77
2023-04-27T09:58:25.471Z,1.60
2023-04-27T10:00:57.634Z,1.67
2023-04-27T10:03:32.787Z,1.90
2023-04-27T10:06:02.140Z,1.25
2023-04-27T10:08:29.212Z,1.50
2023-04-27T10:10:55.521Z,1.05
2023-04-27T10:13:22.886Z,1.52
2023-04-27T10:15:49.230Z,2.08
2023-04-27T10:18:25.127Z,1.73
2023-04-27T10:20:52.774Z,1.65
2023-04-27T10:23:26.013Z,1.20
2023-04-27T10:25:53.135Z,1.60
2023-04-27T10:28:21.163Z,1.88
2023-04-27T10:30:48.900Z,1.73
2023-04-27T10:33:19.504Z,1.67
2023-04-27T10:35:53.895Z,1.50
2023-04-27T10:38:21.732Z,1.48
2023-04-27T10:40:55.929Z,2.00
2023-04-27T10:43:24.734Z,2.00
2023-04-27T10:45:51.112Z,1.60
2023-04-27T10:48:17.573Z,1.98
2023-04-27T10:50:47.538Z,1.60
2023-04-27T10:53:15.311Z,1.83
2023-04-27T10:55:41.603Z,1.70
2023-04-27T10:58:07.981Z,1.80
2023-04-27T11:00:37.240Z,1.80
2023-04-27T11:03:11.829Z,1.52
2023-04-27T11:05:38.754Z,1.52
2023-04-27T11:08:09.223Z,1.77
2023-04-27T11:10:38.317Z,1.70
2023-04-27T11:13:09.105Z,1.35
2023-04-27T11:15:44.637Z,1.50
2023-04-27T11:18:10.866Z,1.52
2023-04-27T11:20:37.140Z,1.90
2023-04-27T11:23:03.608Z,1.75
2023-04-27T11:25:30.051Z,1.63
2023-04-27T11:27:56.393Z,2.70
2023-04-27T11:30:23.272Z,1.70
2023-04-27T11:32:50.148Z,1.83
2023-04-27T11:35:18.117Z,1.73
2023-04-27T11:37:44.578Z,1.85
2023-04-27T11:40:13.957Z,2.10
2023-04-27T11:42:43.510Z,2.28
2023-04-27T11:45:11.417Z,1.85
2023-04-27T11:47:38.057Z,1.88
2023-04-27T11:50:08.142Z,1.50
2023-04-27T11:52:39.892Z,1.80
2023-04-27T11:55:08.341Z,2.00
2023-04-27T11:57:35.816Z,1.70
2023-04-27T12:00:09.177Z,1.90
2023-04-27T12:02:35.597Z,1.65
2023-04-27T12:05:02.322Z,2.08
2023-04-27T12:07:28.715Z,2.10
2023-04-27T12:09:55.036Z,2.00
2023-04-27T12:12:24.297Z,2.00
2023-04-27T12:14:51.780Z,2.10
2023-04-27T12:17:18.498Z,2.28
2023-04-27T12:19:44.792Z,1.80
2023-04-27T12:22:11.084Z,1.92
2023-04-27T12:24:37.468Z,2.00
2023-04-27T12:27:04.358Z,1.88
2023-04-27T12:29:32.019Z,2.22
2023-04-27T12:31:58.797Z,2.17
2023-04-27T12:34:25.301Z,2.25
2023-04-27T12:36:51.595Z,2.42
2023-04-27T12:39:19.734Z,2.33
2023-04-27T12:41:47.309Z,2.13
2023-04-27T12:44:14.457Z,2.25
2023-04-27T12:46:41.601Z,2.72
2023-04-27T12:49:08.538Z,2.22
2023-04-27T12:51:35.358Z,2.30
2023-04-27T12:54:03.116Z,2.30
2023-04-27T12:56:29.773Z,2.05
2023-04-27T12:58:56.224Z,2.03
2023-04-27T13:01:24.875Z,2.10
2023-04-27T13:03:52.595Z,2.47
2023-04-27T13:06:19.251Z,1.83
2023-04-27T13:08:45.683Z,2.17
2023-04-27T13:11:12.109Z,1.95
2023-04-27T13:13:38.548Z,2.20
2023-04-27T13:16:04.905Z,2.03
2023-04-27T13:18:32.898Z,2.33
2023-04-27T13:21:01.852Z,2.10
2023-04-27T13:23:28.136Z,2.17
2023-04-27T13:25:54.458Z,2.78
2023-04-27T13:28:20.789Z,2.45
2023-04-27T13:30:48.829Z,2.20
2023-04-27T13:33:23.185Z,2.30
2023-04-27T13:35:50.841Z,2.25
2023-04-27T13:38:17.103Z,2.33
2023-04-27T13:40:43.383Z,2.67
2023-04-27T13:43:09.714Z,2.28
2023-04-27T13:45:36.139Z,1.73
2023-04-27T13:48:02.492Z,2.00
2023-04-27T13:50:28.855Z,2.88
2023-04-27T13:52:55.171Z,2.20
2023-04-27T13:55:21.517Z,2.47
2023-04-27T13:57:47.800Z,2.30
2023-04-27T14:00:14.457Z,2.03
2023-04-27T14:02:41.290Z,1.73
2023-04-27T14:05:07.909Z,2.17
2023-04-27T14:07:35.697Z,2.70
2023-04-27T14:10:05.432Z,1.90
2023-04-27T14:12:32.128Z,1.80
2023-04-27T14:14:58.737Z,2.42
2023-04-27T14:17:25.599Z,2.25
2023-04-27T14:19:52.062Z,2.45
2023-04-27T14:22:18.314Z,2.00
2023-04-27T14:24:45.628Z,3.20
2023-04-27T14:27:12.006Z,1.92
2023-04-27T14:29:38.377Z,1.83
2023-04-27T14:32:04.730Z,2.00
2023-04-27T14:34:30.967Z,2.08
2023-04-27T14:36:57.304Z,2.50
2023-04-27T14:39:23.720Z,2.30
2023-04-27T14:41:50.022Z,2.35
2023-04-27T14:44:16.444Z,2.45
2023-04-27T14:46:42.820Z,2.00
2023-04-27T14:49:09.142Z,1.80
2023-04-27T14:51:35.517Z,2.63
2023-04-27T14:54:02.408Z,1.67
2023-04-27T14:56:28.639Z,2.13
2023-04-27T14:58:55.238Z,1.60
2023-04-27T15:01:21.696Z,1.63
2023-04-27T15:03:48.295Z,1.70
2023-04-27T15:06:14.683Z,1.50
2023-04-27T15:08:40.996Z,1.65
2023-04-27T15:11:07.266Z,1.42
2023-04-27T15:13:33.520Z,1.58
2023-04-27T15:16:00.985Z,1.58
2023-04-27T15:18:27.324Z,1.70
2023-04-27T15:20:56.938Z,1.40
2023-04-27T15:23:24.005Z,1.07
2023-04-27T15:25:51.777Z,1.70
2023-04-27T15:28:18.417Z,1.58
2023-04-27T15:30:44.981Z,1.20
2023-04-27T15:33:12.149Z,1.50
2023-04-27T15:35:40.231Z,1.60
2023-04-27T15:38:07.431Z,1.23
2023-04-27T15:40:33.989Z,1.20
2023-04-27T15:43:00.542Z,1.40
2023-04-27T15:45:27.437Z,1.25
2023-04-27T15:47:54.021Z,1.20
2023-04-27T15:50:20.942Z,1.25
2023-04-27T15:52:47.333Z,1.38
2023-04-27T15:55:13.584Z,1.15
2023-04-27T15:57:39.992Z,0.98
2023-04-27T16:00:09.966Z,2.03
2023-04-27T16:02:37.539Z,1.90
2023-04-27T16:05:05.621Z,1.55
2023-04-27T16:07:32.662Z,1.52
2023-04-27T16:09:59.587Z,1.67
2023-04-27T16:12:26.278Z,1.60
2023-04-27T16:14:57.009Z,1.60
2023-04-27T16:17:23.916Z,1.98
2023-04-27T16:19:50.773Z,1.20
2023-04-27T16:22:17.198Z,5.07
2023-04-27T16:24:43.434Z,1.63
2023-04-27T16:27:09.681Z,1.42
2023-04-27T16:29:36.579Z,1.90
2023-04-27T16:32:03.385Z,1.38
2023-04-27T16:34:29.724Z,1.40
2023-04-27T16:36:56.273Z,1.20
2023-04-27T16:39:22.537Z,1.27
2023-04-27T16:41:49.409Z,1.40
2023-04-27T16:44:15.712Z,1.50
2023-04-27T16:46:42.055Z,1.58
2023-04-27T16:49:08.625Z,1.42
2023-04-27T16:51:35.608Z,1.90
2023-04-27T16:54:02.616Z,1.48
2023-04-27T16:56:34.573Z,1.65
2023-04-27T16:59:01.270Z,1.20
2023-04-27T17:01:29.721Z,2.00
2023-04-27T17:03:57.270Z,1.50
2023-04-27T17:06:25.314Z,1.95
2023-04-27T17:08:51.868Z,1.90
2023-04-27T17:11:19.267Z,2.97
2023-04-27T17:13:46.704Z,1.95
2023-04-27T17:16:13.551Z,8.52
2023-04-27T17:18:40.092Z,2.13
2023-04-27T17:21:06.399Z,1.55
2023-04-27T17:23:33.878Z,2.20
2023-04-27T17:26:00.303Z,1.35
2023-04-27T17:28:26.626Z,2.50
2023-04-27T17:30:53.215Z,2.85
2023-04-27T17:33:19.477Z,1.73
2023-04-27T17:35:47.249Z,1.75
2023-04-27T17:38:13.952Z,1.75
2023-04-27T17:40:40.326Z,1.55
2023-04-27T17:43:06.637Z,1.75
2023-04-27T17:45:32.995Z,1.70
2023-04-27T17:47:59.345Z,1.63
2023-04-27T17:50:26.112Z,2.25
2023-04-27T17:52:53.861Z,3.35
2023-04-27T17:55:20.924Z,2.75
2023-04-27T17:57:47.232Z,2.40
2023-04-27T18:00:14.471Z,1.95
2023-04-27T18:02:41.365Z,1.92
2023-04-27T18:05:07.806Z,2.30
2023-04-27T18:07:34.749Z,2.00
2023-04-27T18:10:01.036Z,2.13
2023-04-27T18:12:27.477Z,1.85
2023-04-27T18:14:53.799Z,3.38
2023-04-27T18:17:20.990Z,2.20
2023-04-27T18:19:48.877Z,2.25
2023-04-27T18:22:19.624Z,5.43
2023-04-27T18:24:46.122Z,2.45
2023-04-27T18:27:12.507Z,2.63
2023-04-27T18:29:39.799Z,2.30
2023-04-27T18:32:06.405Z,3.45
2023-04-27T18:34:33.071Z,3.60
2023-04-27T18:36:59.360Z,2.75
2023-04-27T18:39:25.980Z,15.18
2023-04-27T18:41:52.283Z,3.22
2023-04-27T18:44:18.616Z,4.68
2023-04-27T18:46:46.036Z,2.45
2023-04-27T18:49:12.790Z,2.20
2023-04-27T18:51:39.345Z,3.05
2023-04-27T18:56:32.916Z,8.63
2023-04-27T18:59:00.730Z,2.20
2023-04-27T19:01:28.078Z,2.40
2023-04-27T19:03:54.932Z,2.40
2023-04-27T19:06:21.559Z,1.88
2023-04-27T19:08:48.143Z,1.80
2023-04-27T19:11:14.547Z,2.15
2023-04-27T19:13:43.084Z,6.05
2023-04-27T19:16:10.361Z,4.05
2023-04-27T19:18:36.779Z,3.63
2023-04-27T19:21:03.365Z,3.80
2023-04-27T19:23:29.833Z,3.47
2023-04-27T19:26:00.142Z,3.95
2023-04-27T19:28:37.428Z,4.03
2023-04-27T19:31:03.780Z,3.78
2023-04-27T19:33:30.079Z,3.72
2023-04-27T19:35:58.358Z,3.72
2023-04-27T19:38:25.514Z,4.32
2023-04-27T19:40:51.805Z,3.67
2023-04-27T19:43:18.086Z,3.80
2023-04-27T19:45:44.478Z,3.67
2023-04-27T19:48:11.167Z,4.10
2023-04-27T19:50:40.601Z,6.20
2023-04-27T19:53:06.959Z,4.22
2023-04-27T19:55:33.523Z,3.97
2023-04-27T19:57:59.829Z,4.00
2023-04-27T20:00:26.139Z,3.60
2023-04-27T20:02:53.779Z,4.13
2023-04-27T20:05:20.468Z,4.40
2023-04-27T20:07:47.004Z,3.88
2023-04-27T20:10:13.516Z,3.72
2023-04-27T20:12:54.416Z,4.00
2023-04-27T20:15:21.551Z,4.00
2023-04-27T20:17:47.918Z,4.40
2023-04-27T20:20:14.293Z,4.43
2023-04-27T20:22:40.696Z,4.43
2023-04-27T20:25:07.908Z,4.40
2023-04-27T20:27:35.351Z,4.00
2023-04-27T20:30:01.866Z,9.18
2023-04-27T20:32:28.107Z,3.95
2023-04-27T20:34:54.425Z,4.15
2023-04-27T20:37:21.130Z,4.15
2023-04-27T20:39:47.560Z,3.67
2023-04-27T20:42:14.409Z,5.10
2023-04-27T20:44:40.721Z,4.25
2023-04-27T20:47:07.096Z,4.30
2023-04-27T20:49:35.428Z,4.60
2023-04-27T20:52:02.224Z,4.20
2023-04-27T20:54:30.889Z,4.63
2023-04-27T20:56:57.779Z,4.30
2023-04-27T20:59:24.163Z,4.68
2023-04-27T21:01:50.539Z,4.38
2023-04-27T21:04:17.086Z,4.10
2023-04-27T21:06:43.655Z,4.20
2023-04-27T21:09:10.037Z,4.07
2023-04-27T21:11:36.506Z,3.70
2023-04-27T21:14:02.769Z,3.63
2023-04-27T21:16:29.093Z,3.70
2023-04-27T21:18:55.337Z,3.78
2023-04-27T21:21:22.129Z,3.78
2023-04-27T21:23:54.380Z,3.33
2023-04-27T21:26:27.056Z,3.63
2023-04-27T21:28:53.355Z,3.88
2023-04-27T21:31:20.738Z,3.42
2023-04-27T21:33:47.294Z,3.50
2023-04-27T21:36:13.548Z,3.58
2023-04-27T21:38:40.019Z,3.58
2023-04-27T21:41:06.337Z,3.42
2023-04-27T21:43:32.742Z,3.63
2023-04-27T21:45:58.980Z,2.95
2023-04-27T21:48:25.367Z,3.13
2023-04-27T21:50:51.631Z,3.58
2023-04-27T21:53:17.956Z,4.20
2023-04-27T21:55:44.281Z,3.83
2023-04-27T21:58:10.616Z,4.00
2023-04-27T22:00:36.851Z,3.70
2023-04-27T22:03:03.756Z,4.07
2023-04-27T22:05:33.302Z,3.58
2023-04-27T22:07:59.619Z,4.07
2023-04-27T22:10:26.028Z,4.15
2023-04-27T22:12:52.376Z,3.60
2023-04-27T22:15:19.897Z,3.80
2023-04-27T22:17:46.408Z,4.10
2023-04-27T22:20:14.159Z,4.22
2023-04-27T22:22:41.022Z,3.80
2023-04-27T22:25:07.820Z,4.55
2023-04-27T22:27:42.056Z,4.85
2023-04-27T22:30:11.482Z,4.10
2023-04-27T22:32:37.903Z,4.13
2023-04-27T22:35:06.918Z,4.13
2023-04-27T22:40:01.360Z,4.03
2023-04-27T22:42:27.590Z,4.25
2023-04-27T22:44:53.902Z,4.40
2023-04-27T22:47:20.188Z,4.85
2023-04-27T22:49:46.888Z,4.00
2023-04-27T22:52:13.125Z,4.35
2023-04-27T22:54:39.630Z,4.00
2023-04-27T22:57:05.940Z,4.00
2023-04-27T22:59:32.227Z,4.00
2023-04-27T23:01:58.530Z,3.97
2023-04-27T23:04:26.548Z,4.00
2023-04-27T23:06:53.694Z,3.90
2023-04-27T23:09:20.745Z,4.05
2023-04-27T23:11:47.388Z,3.80
2023-04-27T23:14:14.296Z,4.18
2023-04-27T23:16:41.048Z,3.75
2023-04-27T23:19:07.500Z,4.03
2023-04-27T23:21:33.772Z,4.15
2023-04-27T23:24:00.016Z,4.00
2023-04-27T23:26:26.646Z,3.80
2023-04-27T23:28:53.012Z,3.85
2023-04-27T23:31:19.277Z,4.00
2023-04-27T23:33:45.639Z,4.13
2023-04-27T23:36:11.890Z,4.45
2023-04-27T23:38:38.244Z,4.63
2023-04-27T23:41:04.615Z,3.92
2023-04-27T23:43:31.534Z,4.00
2023-04-27T23:45:57.854Z,4.00
2023-04-27T23:48:24.176Z,3.80
2023-04-27T23:50:58.072Z,4.47
2023-04-27T23:53:24.303Z,3.88
2023-04-27T23:55:50.553Z,4.07
2023-04-27T23:58:16.963Z,4.22
